Time;durP1;ratioP1;P1;durP2;ratioP2;P2;SDS_P1;SDS_P2;PMS_P1;PMS_P2;Temp;Humidity;BMP_temperature;BMP_pressure;BME280_temperature;BME280_humidity;BME280_pressure;Samples;Min_cycle;Max_cycle;Signal;HPM_P1;HPM_P2
2021/09/18 00:03:03;;;;;;;10.27;7.67;;;14.80;99.90;;;;;;6753759;88;20199;-76
2021/09/18 00:13:03;;;;;;;13.02;7.78;;;14.80;99.90;;;;;;6753431;88;20238;-76
2021/09/18 00:23:04;;;;;;;10.35;7.62;;;14.60;99.90;;;;;;6752001;88;20205;-77
2021/09/18 00:33:04;;;;;;;11.93;7.50;;;14.50;99.90;;;;;;6752370;88;20733;-76
2021/09/18 00:43:05;;;;;;;13.20;7.40;;;14.30;99.90;;;;;;6751135;88;20626;-77
2021/09/18 00:53:06;;;;;;;11.18;7.95;;;14.20;99.90;;;;;;6752183;87;20557;-76
2021/09/18 01:03:06;;;;;;;11.15;7.78;;;14.10;99.90;;;;;;6751678;88;20228;-76
2021/09/18 01:13:11;;;;;;;12.32;7.62;;;14.00;99.90;;;;;;6752298;88;20246;-77
2021/09/18 01:23:22;;;;;;;10.70;7.20;;;13.90;99.90;;;;;;6752376;87;20319;-77
2021/09/18 01:33:23;;;;;;;9.98;7.47;;;13.90;99.90;;;;;;6752177;87;20685;-77
2021/09/18 01:43:24;;;;;;;15.53;7.23;;;13.70;99.90;;;;;;6752481;88;20253;-76
2021/09/18 01:53:25;;;;;;;10.90;6.95;;;13.80;99.90;;;;;;6753347;87;20565;-77
2021/09/18 02:03:26;;;;;;;12.32;6.65;;;13.60;99.90;;;;;;6754656;88;20226;-78
2021/09/18 02:13:26;;;;;;;10.77;6.70;;;13.60;99.90;;;;;;6758184;87;20659;-77
2021/09/18 02:23:27;;;;;;;10.18;5.90;;;13.60;99.90;;;;;;6757684;88;20192;-79
2021/09/18 02:33:27;;;;;;;10.63;6.10;;;13.60;99.90;;;;;;6749581;88;20218;-78
2021/09/18 02:43:28;;;;;;;7.72;6.12;;;13.40;99.90;;;;;;6760470;88;20203;-78
2021/09/18 02:53:28;;;;;;;12.80;6.55;;;13.30;99.90;;;;;;6748642;88;20203;-77
2021/09/18 03:03:29;;;;;;;9.73;6.40;;;13.30;99.90;;;;;;6751234;88;20246;-78
2021/09/18 03:13:30;;;;;;;8.60;6.53;;;13.30;99.90;;;;;;6742834;88;20223;-77
2021/09/18 03:23:31;;;;;;;9.07;6.40;;;13.10;99.90;;;;;;6757682;88;20537;-78
2021/09/18 03:33:31;;;;;;;10.23;6.07;;;13.00;99.90;;;;;;6752012;87;20196;-78
2021/09/18 03:43:32;;;;;;;8.27;6.25;;;12.90;99.90;;;;;;6745036;88;20753;-77
2021/09/18 03:53:33;;;;;;;9.27;6.30;;;12.90;99.90;;;;;;6747338;88;20259;-77
2021/09/18 04:03:33;;;;;;;10.20;6.40;;;13.00;99.90;;;;;;6746159;88;20560;-77
2021/09/18 04:13:34;;;;;;;11.60;6.80;;;13.10;99.90;;;;;;6748112;88;20210;-77
2021/09/18 04:23:34;;;;;;;8.63;6.45;;;12.80;99.90;;;;;;6746949;88;20204;-77
2021/09/18 04:33:35;;;;;;;14.35;7.75;;;12.70;99.90;;;;;;6751069;88;20220;-78
2021/09/18 04:43:36;;;;;;;11.57;7.57;;;12.60;99.90;;;;;;6740141;88;20196;-77
2021/09/18 04:53:36;;;;;;;12.20;7.78;;;12.40;99.90;;;;;;6748679;88;20211;-77
2021/09/18 05:03:37;;;;;;;13.07;8.05;;;12.40;99.90;;;;;;6742630;88;20185;-76
2021/09/18 05:13:37;;;;;;;14.80;8.95;;;12.30;99.90;;;;;;6745582;88;20243;-76
2021/09/18 05:23:38;;;;;;;15.48;10.00;;;12.20;99.90;;;;;;6753292;88;20184;-76
2021/09/18 05:33:38;;;;;;;17.05;9.77;;;12.10;99.90;;;;;;6748702;88;20188;-77
2021/09/18 05:43:39;;;;;;;14.43;9.07;;;12.10;99.90;;;;;;6753699;88;20193;-78
2021/09/18 05:53:39;;;;;;;14.93;8.98;;;12.20;99.90;;;;;;6759314;87;20333;-77
2021/09/18 06:03:40;;;;;;;21.60;11.68;;;12.40;99.90;;;;;;6755489;88;20240;-78
2021/09/18 06:13:40;;;;;;;20.52;12.13;;;12.40;99.90;;;;;;6758941;88;20298;-77
2021/09/18 06:23:41;;;;;;;20.80;12.13;;;12.50;99.90;;;;;;6760516;88;20314;-76
2021/09/18 06:33:41;;;;;;;17.08;10.20;;;12.60;99.90;;;;;;6751252;88;20529;-76
2021/09/18 06:43:42;;;;;;;17.50;9.93;;;12.70;99.90;;;;;;6743236;88;20319;-77
2021/09/18 06:53:42;;;;;;;16.20;9.77;;;13.00;99.90;;;;;;6744286;87;20271;-78
2021/09/18 07:03:43;;;;;;;14.18;8.75;;;13.40;99.90;;;;;;6747225;88;20184;-79
2021/09/18 07:13:43;;;;;;;15.38;9.00;;;13.90;99.90;;;;;;6746310;88;20710;-79
2021/09/18 07:23:45;;;;;;;13.85;8.10;;;14.10;99.90;;;;;;6741860;88;20619;-77
2021/09/18 07:33:45;;;;;;;15.00;8.52;;;14.60;99.90;;;;;;6741753;88;20335;-77
2021/09/18 07:43:46;;;;;;;13.10;8.85;;;14.70;99.90;;;;;;6741408;88;20217;-77
2021/09/18 07:53:46;;;;;;;13.80;8.07;;;15.10;99.90;;;;;;6739579;88;20201;-77
2021/09/18 08:03:47;;;;;;;12.27;7.68;;;15.90;99.90;;;;;;6735206;88;20184;-79
2021/09/18 08:13:51;;;;;;;13.10;8.38;;;16.50;99.90;;;;;;6736332;88;20199;-78
2021/09/18 08:23:52;;;;;;;14.97;8.93;;;17.60;99.90;;;;;;6735359;88;20212;-77
2021/09/18 08:33:53;;;;;;;14.77;7.97;;;18.40;99.90;;;;;;6735435;88;20531;-78
2021/09/18 08:43:53;;;;;;;15.55;7.72;;;19.20;99.90;;;;;;6734341;88;20189;-78
2021/09/18 08:53:55;;;;;;;10.55;7.68;;;20.20;99.90;;;;;;6734509;88;20697;-78
2021/09/18 09:03:58;;;;;;;12.73;7.40;;;21.50;99.90;;;;;;6733599;88;20681;-78
2021/09/18 09:13:58;;;;;;;13.05;7.40;;;22.10;99.90;;;;;;6732930;88;20183;-79
2021/09/18 09:24:11;;;;;;;11.18;7.10;;;22.90;99.90;;;;;;6732848;88;20266;-79
2021/09/18 09:34:14;;;;;;;10.43;6.63;;;23.50;99.90;;;;;;6731904;88;20176;-78
2021/09/18 09:44:21;;;;;;;12.55;9.18;;;24.40;99.90;;;;;;6732662;88;20614;-80
2021/09/18 09:54:26;;;;;;;11.65;8.70;;;24.40;99.90;;;;;;6733033;88;20300;-77
2021/09/18 10:04:26;;;;;;;17.00;11.10;;;25.50;99.90;;;;;;6732600;88;20202;-77
2021/09/18 10:14:28;;;;;;;16.33;11.68;;;25.40;99.90;;;;;;6732840;88;20617;-77
2021/09/18 10:24:33;;;;;;;19.00;13.37;;;26.60;99.90;;;;;;6736007;88;20185;-77
2021/09/18 10:34:34;;;;;;;22.13;13.27;;;28.20;99.10;;;;;;6734842;88;20210;-78
2021/09/18 10:44:50;;;;;;;19.73;14.10;;;28.40;97.70;;;;;;6734920;88;20555;-78
2021/09/18 10:55:03;;;;;;;23.92;14.60;;;29.20;95.80;;;;;;6733748;88;20210;-79
2021/09/18 11:05:28;;;;;;;18.75;13.60;;;29.50;94.70;;;;;;6733517;88;20258;-79
2021/09/18 11:15:39;;;;;;;18.77;12.75;;;29.80;93.50;;;;;;6730920;88;20734;-77
2021/09/18 11:25:45;;;;;;;22.37;13.27;;;29.50;93.60;;;;;;6734090;88;20648;-78
2021/09/18 11:35:57;;;;;;;19.15;12.70;;;29.00;92.70;;;;;;6735205;88;20380;-79
2021/09/18 11:45:58;;;;;;;;;;;27.70;93.70;;;;;;6738176;88;20316;-78
2021/09/18 11:55:58;;;;;;;9.27;5.73;;;26.70;94.00;;;;;;6748170;87;20516;-78
2021/09/18 12:06:07;;;;;;;10.27;5.95;;;28.40;91.40;;;;;;6743369;88;20495;-78
2021/09/18 12:16:08;;;;;;;12.45;6.30;;;28.70;90.40;;;;;;6743106;88;20197;-78
2021/09/18 12:26:10;;;;;;;10.55;6.57;;;28.20;90.30;;;;;;6752982;87;20661;-78
2021/09/18 12:36:14;;;;;;;9.17;6.03;;;28.90;89.20;;;;;;6745061;87;20195;-77
2021/09/18 12:46:15;;;;;;;7.82;5.70;;;29.30;88.90;;;;;;6745476;87;20676;-77
2021/09/18 12:56:25;;;;;;;7.55;5.20;;;29.00;87.30;;;;;;6740116;87;20220;-77
2021/09/18 13:06:26;;;;;;;6.30;4.07;;;28.40;88.90;;;;;;6748378;88;20185;-78
2021/09/18 13:16:26;;;;;;;9.40;4.70;;;30.40;84.80;;;;;;6745746;87;20820;-79
2021/09/18 13:26:28;;;;;;;6.75;4.80;;;31.00;81.20;;;;;;6746901;88;20251;-79
2021/09/18 13:36:29;;;;;;;7.15;4.45;;;30.80;80.00;;;;;;6738573;87;20201;-78
2021/09/18 13:46:29;;;;;;;5.53;4.20;;;30.70;79.70;;;;;;6749147;88;20667;-78
2021/09/18 13:56:30;;;;;;;7.17;4.57;;;30.70;78.40;;;;;;6754901;88;20962;-79
2021/09/18 14:06:30;;;;;;;3.85;3.33;;;30.30;80.20;;;;;;6745148;88;20192;-79
2021/09/18 14:16:31;;;;;;;4.33;3.10;;;29.90;79.30;;;;;;6751292;88;20337;-78
2021/09/18 14:26:32;;;;;;;4.47;3.33;;;29.80;78.60;;;;;;6738604;88;20228;-78
2021/09/18 14:36:32;;;;;;;5.13;3.80;;;29.60;78.00;;;;;;6745254;88;20217;-78
2021/09/18 14:46:33;;;;;;;6.60;3.53;;;29.10;78.80;;;;;;6747358;88;20323;-78
2021/09/18 14:56:34;;;;;;;6.12;3.80;;;28.50;78.90;;;;;;6741820;88;20633;-78
2021/09/18 15:06:34;;;;;;;6.28;3.20;;;28.30;80.50;;;;;;6751323;88;20595;-78
2021/09/18 15:16:35;;;;;;;4.13;3.30;;;27.80;79.40;;;;;;6735545;88;20237;-78
2021/09/18 15:26:35;;;;;;;6.07;3.95;;;27.70;80.40;;;;;;6737504;88;20608;-78
2021/09/18 15:36:36;;;;;;;8.20;5.20;;;27.90;80.00;;;;;;6737352;88;20228;-78
2021/09/18 15:46:37;;;;;;;9.18;5.60;;;27.80;85.30;;;;;;6747058;88;21135;-77
2021/09/18 15:56:37;;;;;;;6.35;5.47;;;27.20;88.70;;;;;;6753960;88;20664;-76
2021/09/18 16:06:38;;;;;;;8.63;5.60;;;26.50;90.00;;;;;;6751571;88;20263;-77
2021/09/18 16:16:38;;;;;;;8.80;5.50;;;25.50;91.40;;;;;;6742766;88;20185;-78
2021/09/18 16:26:39;;;;;;;8.70;6.05;;;24.80;93.20;;;;;;6752608;88;20195;-78
2021/09/18 16:36:39;;;;;;;8.27;6.18;;;24.20;94.50;;;;;;6740633;88;20256;-77
2021/09/18 16:46:41;;;;;;;9.20;5.53;;;24.00;95.10;;;;;;6735080;88;20207;-77
2021/09/18 16:56:41;;;;;;;9.18;6.55;;;23.70;97.10;;;;;;6735063;88;20204;-78
2021/09/18 17:06:42;;;;;;;8.82;6.15;;;23.30;98.20;;;;;;6744877;88;20236;-77
2021/09/18 17:16:43;;;;;;;11.68;7.10;;;22.70;99.90;;;;;;6734739;88;20706;-78
2021/09/18 17:26:43;;;;;;;10.80;6.65;;;22.20;99.90;;;;;;6736703;88;20370;-77
2021/09/18 17:36:44;;;;;;;12.43;8.85;;;21.80;99.90;;;;;;6737487;88;20247;-79
2021/09/18 17:46:44;;;;;;;13.75;9.73;;;21.30;99.90;;;;;;6736469;88;20208;-78
2021/09/18 17:56:46;;;;;;;15.63;11.63;;;20.70;99.90;;;;;;6737404;88;20351;-77
2021/09/18 18:06:47;;;;;;;14.68;9.70;;;20.20;99.90;;;;;;6741229;88;20338;-77
2021/09/18 18:16:47;;;;;;;15.27;11.50;;;19.80;99.90;;;;;;6754045;88;20212;-78
2021/09/18 18:26:48;;;;;;;16.98;12.60;;;19.50;99.90;;;;;;6752370;87;20229;-77
2021/09/18 18:36:49;;;;;;;16.97;11.87;;;19.30;99.90;;;;;;6751826;87;20215;-78
2021/09/18 18:46:50;;;;;;;16.27;10.52;;;18.90;99.90;;;;;;6751760;87;20192;-77
2021/09/18 18:56:50;;;;;;;13.15;9.88;;;18.60;99.90;;;;;;6752320;87;20366;-79
2021/09/18 19:06:52;;;;;;;12.00;9.10;;;18.40;99.90;;;;;;6752064;88;20705;-78
2021/09/18 19:16:53;;;;;;;10.55;7.95;;;18.20;99.90;;;;;;6752127;87;20625;-78
2021/09/18 19:26:53;;;;;;;9.32;7.10;;;18.10;99.90;;;;;;6755747;88;20204;-80
2021/09/18 19:36:54;;;;;;;8.00;5.90;;;18.10;99.90;;;;;;6755996;88;20297;-79
2021/09/18 19:46:54;;;;;;;7.97;6.12;;;18.30;99.90;;;;;;6754902;88;20199;-77
2021/09/18 19:57:36;;;;;;;8.02;5.93;;;18.20;99.90;;;;;;6754010;77;20201;-79
2021/09/18 20:07:36;;;;;;;9.95;7.45;;;17.90;99.90;;;;;;6739035;88;20708;-80
2021/09/18 20:17:37;;;;;;;8.57;7.00;;;17.80;99.90;;;;;;6736784;88;20188;-78
2021/09/18 20:27:40;;;;;;;9.38;6.87;;;17.80;99.90;;;;;;6737613;88;20619;-80
2021/09/18 20:37:41;;;;;;;10.18;8.13;;;17.70;99.90;;;;;;6739650;88;20211;-78
2021/09/18 20:47:41;;;;;;;10.23;7.05;;;17.70;99.90;;;;;;6736955;88;20192;-77
2021/09/18 20:57:42;;;;;;;12.53;8.20;;;17.20;99.90;;;;;;6737643;88;20229;-79
2021/09/18 21:07:43;;;;;;;10.40;8.25;;;17.00;99.90;;;;;;6736150;88;20676;-80
2021/09/18 21:17:44;;;;;;;13.35;9.05;;;16.90;99.90;;;;;;6735909;88;20192;-80
2021/09/18 21:27:44;;;;;;;10.85;8.65;;;16.60;99.90;;;;;;6735922;88;20268;-78
2021/09/18 21:37:45;;;;;;;15.38;9.70;;;16.50;99.90;;;;;;6739061;88;20669;-79
2021/09/18 21:47:45;;;;;;;11.52;8.65;;;16.30;99.90;;;;;;6735410;88;20180;-78
2021/09/18 21:57:46;;;;;;;12.73;9.45;;;16.30;99.90;;;;;;6734614;88;20350;-79
2021/09/18 22:07:47;;;;;;;9.32;6.82;;;16.20;99.90;;;;;;6736019;88;20209;-78
2021/09/18 22:17:47;;;;;;;8.23;6.10;;;16.20;99.90;;;;;;6738139;88;20193;-79
2021/09/18 22:27:48;;;;;;;9.32;6.82;;;16.00;99.90;;;;;;6737744;88;20260;-78
2021/09/18 22:37:48;;;;;;;9.02;6.00;;;15.90;99.90;;;;;;6737150;88;20627;-79
2021/09/18 22:47:49;;;;;;;7.93;5.05;;;15.90;99.90;;;;;;6736784;88;20196;-79
2021/09/18 22:57:50;;;;;;;6.00;3.50;;;15.90;99.90;;;;;;6736905;88;20597;-78
2021/09/18 23:07:51;;;;;;;3.45;2.72;;;16.10;99.90;;;;;;6737142;88;20241;-77
2021/09/18 23:17:52;;;;;;;5.10;3.00;;;16.00;99.90;;;;;;6738516;88;20196;-78
2021/09/18 23:27:56;;;;;;;5.53;3.40;;;16.00;99.90;;;;;;6736660;88;20237;-78
2021/09/18 23:37:57;;;;;;;4.27;3.10;;;16.00;99.90;;;;;;6736860;88;21131;-79
2021/09/18 23:47:57;;;;;;;4.20;2.97;;;15.90;99.90;;;;;;6737675;88;20733;-79
2021/09/18 23:57:58;;;;;;;4.32;3.10;;;15.80;99.90;;;;;;6737638;88;20227;-77
